Coldwater, Missouri
Current Conditions -  °F | °C
As of 7:53 AM on Saturday 25 Oct 2014 (Local Time) from KPOF Reporting Station
Haze Haze  
Wind Chill: 56°   Ceiling: Unl
Heat Index: 56°   Visibility: 2.5mi
Dew Point: 53°   Wind: 3mph
Humidity: 90%   Direction: 240°WSW
Pressure: 30.05"   Gusts: NA
Location:  37.2405°N, 90.4398°W
Report Text: KPOF 251253Z AUTO 24003KT 2 1/2SM BR CLR 13/12 A3005 RMK AO2 SLP174 T01330117
Loading
Personal Weather Stations






























Interactive Weather Map
Tropical Storm Tracking
New forecast layout! Learn more

10-Day Weather Forecast

Advertisements
Track Severe Weather on mobile